| time (UTC) | temp C | wind direction | speed KPH | gust KPH | rain 1hr cm | rain 24hr cm | rain mn cm | humidity % | barometer mb |
| 20260506020039 | 9 | 159 | 9.7 | 20.9 | 0.00 | 0.00 | 0.00 | 55 | 840.2 |
| 20260506010035 | 9 | 159 | 9.7 | 22.5 | 0.00 | 0.00 | 0.00 | 56 | 840.1 |
| 20260506000106 | 10 | 131 | 12.9 | 41.8 | 0.00 | 0.00 | 0.00 | 56 | 840.1 |
| 20260505230051 | 9 | 157 | 14.5 | 24.1 | 0.00 | 0.00 | 0.00 | 57 | 840.2 |
| 20260505220034 | 10 | 150 | 6.4 | 19.3 | 0.00 | 0.00 | 0.00 | 48 | 840.4 |
| 20260505210037 | 11 | 181 | 11.3 | 25.7 | 0.00 | 0.00 | 0.00 | 42 | 840.3 |
| 20260505200039 | 10 | 161 | 14.5 | 30.6 | 0.00 | 0.00 | 0.00 | 45 | 840.6 |
| 20260505190040 | 10 | 159 | 14.5 | 25.7 | 0.00 | 0.00 | 0.00 | 46 | 840.3 |
| 20260505180047 | 9 | 166 | 12.9 | 24.1 | 0.00 | 0.00 | 0.00 | 46 | 840.3 |
| 20260505170046 | 9 | 175 | 11.3 | 30.6 | 0.00 | 0.00 | 0.00 | 49 | 839.9 |
| 20260505130106 | 6 | 229 | 12.9 | 24.1 | 0.00 | 0.00 | 0.00 | 52 | 838.5 |
| 20260505120109 | 7 | 204 | 14.5 | 30.6 | 0.00 | 0.00 | 0.00 | 51 | 838.0 |
| 20260505110105 | 7 | 227 | 17.7 | 32.2 | 0.00 | 0.00 | 0.00 | 54 | 837.7 |
| 20260505100140 | 7 | 203 | 16.1 | 37.0 | 0.00 | 0.00 | 0.00 | 53 | 837.5 |
| 20260505090109 | 7 | 226 | 24.1 | 41.8 | 0.00 | 0.00 | 0.00 | 54 | 837.3 |
| 20260505080508 | 7 | 197 | 25.7 | 43.5 | 0.00 | 0.00 | 0.00 | 55 | 837.7 |
| 20260505070040 | 7 | 209 | 27.4 | 51.5 | 0.00 | 0.00 | 0.00 | 55 | 837.3 |
| 20260505060457 | 7 | 230 | 24.1 | 41.8 | 0.00 | 0.00 | 0.00 | 53 | 837.0 |
| 20260505040053 | 7 | 163 | 14.5 | 27.4 | 0.00 | 0.00 | 0.00 | 58 | 837.8 |
| 20260505020115 | 11 | 182 | 12.9 | 30.6 | 0.00 | 0.00 | 0.00 | 40 | 837.4 |